createdAt,value
2023-04-30T00:01:17.173Z,100364.72
2023-04-30T00:03:22.320Z,100367.89
2023-04-30T00:05:27.565Z,100365.79
2023-04-30T00:07:32.589Z,100371.61
2023-04-30T00:09:37.749Z,100369.33
2023-04-30T00:11:42.841Z,100370.48
2023-04-30T00:13:47.901Z,100370.47
2023-04-30T00:15:53.084Z,100370.82
2023-04-30T00:17:58.235Z,100372.15
2023-04-30T00:20:03.442Z,100375.23
2023-04-30T00:22:08.507Z,100372.21
2023-04-30T00:24:13.531Z,100372.67
2023-04-30T00:26:18.729Z,100372.86
2023-04-30T00:28:23.794Z,100373.61
2023-04-30T00:30:28.979Z,100378.2
2023-04-30T00:32:34.041Z,100378.61
2023-04-30T00:34:39.253Z,100379.25
2023-04-30T00:36:44.283Z,100381.34
2023-04-30T00:38:49.325Z,100386.43
2023-04-30T00:40:54.362Z,100389.11
2023-04-30T00:42:59.401Z,100390.53
2023-04-30T00:45:04.453Z,100394.44
2023-04-30T00:47:09.700Z,100392.09
2023-04-30T00:49:14.823Z,100399.36
2023-04-30T00:51:20.020Z,100402.71
2023-04-30T00:53:25.450Z,100405.66
2023-04-30T00:55:30.479Z,100408.16
2023-04-30T00:57:35.557Z,100411.52
2023-04-30T00:59:40.557Z,100415.36
2023-04-30T01:01:45.795Z,100412.7
2023-04-30T01:03:51.165Z,100413.09
2023-04-30T01:05:56.373Z,100409.63
2023-04-30T01:08:01.656Z,100411.59
2023-04-30T01:10:06.712Z,100415.11
2023-04-30T01:12:11.787Z,100418.3
2023-04-30T01:14:16.826Z,100419.36
2023-04-30T01:16:22.052Z,100421.69
2023-04-30T01:18:27.517Z,100418.7
2023-04-30T01:20:32.866Z,100419.18
2023-04-30T01:22:37.887Z,100419.73
2023-04-30T01:24:42.901Z,100419.88
2023-04-30T01:26:47.981Z,100419.97
2023-04-30T01:28:53.227Z,100423.73
2023-04-30T01:30:58.468Z,100423.05
2023-04-30T01:33:03.877Z,100426.55
2023-04-30T01:35:09.135Z,100428.84
2023-04-30T01:37:14.181Z,100428.47
2023-04-30T01:39:19.408Z,100431.02
2023-04-30T01:41:24.405Z,100430.92
2023-04-30T01:43:29.597Z,100429.66
2023-04-30T01:45:34.583Z,100431.93
2023-04-30T01:47:39.771Z,100432.09
2023-04-30T01:49:44.887Z,100429.66
2023-04-30T01:51:50.018Z,100432.38
2023-04-30T01:53:55.121Z,100434.93
2023-04-30T01:56:00.132Z,100433.06
2023-04-30T01:58:05.710Z,100433.08
2023-04-30T02:00:10.722Z,100430.33
2023-04-30T02:02:15.755Z,100436.88
2023-04-30T02:04:20.887Z,100437.81
2023-04-30T02:06:26.049Z,100434.29
2023-04-30T02:08:31.373Z,100441.67
2023-04-30T02:10:36.518Z,100435
2023-04-30T02:12:41.644Z,100444.25
2023-04-30T02:14:46.757Z,100445.26
2023-04-30T02:16:51.788Z,100444.93
2023-04-30T02:18:56.916Z,100449.64
2023-04-30T02:21:02.052Z,100449.66
2023-04-30T02:23:07.090Z,100455.03
2023-04-30T02:25:12.122Z,100454.13
2023-04-30T02:27:17.240Z,100455.75
2023-04-30T02:29:22.268Z,100453.44
2023-04-30T02:31:27.529Z,100457
2023-04-30T02:33:32.670Z,100455.84
2023-04-30T02:35:37.797Z,100454.25
2023-04-30T02:37:43.002Z,100459.7
2023-04-30T02:39:48.050Z,100459.72
2023-04-30T02:41:53.065Z,100464.84
2023-04-30T02:43:58.046Z,100465.98
2023-04-30T02:46:03.184Z,100465.88
2023-04-30T02:48:08.525Z,100462.69
2023-04-30T02:50:13.754Z,100466.64
2023-04-30T02:52:18.873Z,100468.87
2023-04-30T02:54:23.964Z,100469.38
2023-04-30T02:56:28.986Z,100474.98
2023-04-30T02:58:34.041Z,100478.53
2023-04-30T03:00:39.071Z,100476.15
2023-04-30T03:02:44.298Z,100476.73
2023-04-30T03:04:49.583Z,100481.55
2023-04-30T03:06:54.630Z,100481.52
2023-04-30T03:08:59.666Z,100484.73
2023-04-30T03:11:04.711Z,100489.02
2023-04-30T03:13:09.805Z,100487.02
2023-04-30T03:15:14.828Z,100489.89
2023-04-30T03:17:19.945Z,100488.05
2023-04-30T03:19:25.275Z,100490.85
2023-04-30T03:21:30.490Z,100494.88
2023-04-30T03:23:35.604Z,100489.88
2023-04-30T03:25:40.760Z,100493.53
2023-04-30T03:27:45.780Z,100495.03
2023-04-30T03:29:50.805Z,100499.09
2023-04-30T03:31:56.466Z,100501.23
2023-04-30T03:34:01.850Z,100509.03
2023-04-30T03:36:07.021Z,100510.5
2023-04-30T03:38:12.037Z,100517.02
2023-04-30T03:40:17.151Z,100520.98
2023-04-30T03:42:22.154Z,100519.2
2023-04-30T03:44:27.378Z,100527.01
2023-04-30T03:46:32.527Z,100528.76
2023-04-30T03:48:37.714Z,100529.42
2023-04-30T03:50:42.769Z,100531.4
2023-04-30T03:52:47.794Z,100534.5
2023-04-30T03:54:52.981Z,100535.16
2023-04-30T03:56:58.064Z,100539.56
2023-04-30T03:59:03.196Z,100541.89
2023-04-30T04:01:08.212Z,100550.45
2023-04-30T04:03:13.455Z,100550.8
2023-04-30T04:05:18.745Z,100553.84
2023-04-30T04:07:23.787Z,100561.56
2023-04-30T04:09:28.901Z,100561.73
2023-04-30T04:11:33.945Z,100563.84
2023-04-30T04:13:38.956Z,100566.88
2023-04-30T04:15:44.220Z,100568.99
2023-04-30T04:17:49.452Z,100571.04
2023-04-30T04:19:55.277Z,100574.08
2023-04-30T04:22:00.623Z,100576.33
2023-04-30T04:24:05.640Z,100574.77
2023-04-30T04:26:10.984Z,100580.11
2023-04-30T04:28:16.015Z,100580.18
2023-04-30T04:30:21.077Z,100579.43
2023-04-30T04:32:26.193Z,100579.63
2023-04-30T04:34:31.332Z,100589.33
2023-04-30T04:36:36.340Z,100589.33
2023-04-30T04:38:41.373Z,100596.77
2023-04-30T04:40:46.470Z,100600.62
2023-04-30T04:42:51.474Z,100598.51
2023-04-30T04:44:56.511Z,100603.05
2023-04-30T04:47:01.580Z,100605.55
2023-04-30T04:49:06.794Z,100616.22
2023-04-30T04:51:11.951Z,100619.95
2023-04-30T04:53:17.101Z,100623.25
2023-04-30T04:55:22.422Z,100623.08
2023-04-30T04:57:27.459Z,100625.61
2023-04-30T04:59:32.601Z,100629.13
2023-04-30T05:01:37.867Z,100631.92
2023-04-30T05:03:43.234Z,100629.73
2023-04-30T05:05:48.482Z,100627.48
2023-04-30T05:07:53.644Z,100635.02
2023-04-30T05:09:58.848Z,100635.67
2023-04-30T05:12:04.011Z,100637.44
2023-04-30T05:14:09.040Z,100636.73
2023-04-30T05:16:14.209Z,100633.05
2023-04-30T05:18:19.316Z,100639.94
2023-04-30T05:20:24.337Z,100636.37
2023-04-30T05:22:29.745Z,100636.3
2023-04-30T05:24:34.958Z,100641.77
2023-04-30T05:26:39.975Z,100651.24
2023-04-30T05:28:45.685Z,100652.58
2023-04-30T05:30:50.852Z,100654.08
2023-04-30T05:32:56.235Z,100651.83
2023-04-30T05:35:01.404Z,100648.86
2023-04-30T05:37:06.512Z,100648.76
2023-04-30T05:39:11.606Z,100650.81
2023-04-30T05:41:16.797Z,100651.83
2023-04-30T05:43:21.843Z,100654.01
2023-04-30T05:45:26.880Z,100658.82
2023-04-30T05:47:31.929Z,100659.7
2023-04-30T05:49:37.658Z,100661.2
2023-04-30T05:51:42.813Z,100661.58
2023-04-30T05:53:47.850Z,100659.67
2023-04-30T05:55:52.870Z,100665.09
2023-04-30T05:57:57.985Z,100667.25
2023-04-30T06:00:03.040Z,100657.88
2023-04-30T06:02:08.165Z,100663.16
2023-04-30T06:04:13.515Z,100667.3
2023-04-30T06:06:18.734Z,100666.72
2023-04-30T06:08:23.979Z,100670.84
2023-04-30T06:10:29.152Z,100671.22
2023-04-30T06:12:34.277Z,100672.58
2023-04-30T06:14:39.410Z,100678.08
2023-04-30T06:16:44.629Z,100679.13
2023-04-30T06:18:51.248Z,100677.19
2023-04-30T06:20:58.015Z,100676.84
2023-04-30T06:23:03.059Z,100682.47
2023-04-30T06:25:08.077Z,100683.63
2023-04-30T06:27:13.205Z,100686.98
2023-04-30T06:29:18.245Z,100687.97
2023-04-30T06:31:23.377Z,100688
2023-04-30T06:33:28.515Z,100683.49
2023-04-30T06:35:33.672Z,100685.91
2023-04-30T06:37:42.156Z,100689.8
2023-04-30T06:39:47.231Z,100691.13
2023-04-30T06:41:52.259Z,100687.08
2023-04-30T06:43:57.332Z,100691.84
2023-04-30T06:46:02.625Z,100690.72
2023-04-30T06:48:08.037Z,100688.09
2023-04-30T06:50:13.252Z,100687.36
2023-04-30T06:52:18.409Z,100690.73
2023-04-30T06:54:23.428Z,100688.23
2023-04-30T06:56:28.472Z,100687.67
2023-04-30T06:58:33.519Z,100687.89
2023-04-30T07:00:38.571Z,100690.97
2023-04-30T07:02:43.837Z,100688.97
2023-04-30T07:04:49.227Z,100695.55
2023-04-30T07:06:54.306Z,100699.95
2023-04-30T07:08:59.331Z,100700.67
2023-04-30T07:11:04.413Z,100704.93
2023-04-30T07:13:09.511Z,100701.97
2023-04-30T07:15:14.557Z,100705.64
2023-04-30T07:17:19.673Z,100708.44
2023-04-30T07:19:24.770Z,100709.02
2023-04-30T07:21:29.797Z,100707.28
2023-04-30T07:23:34.959Z,100706.42
2023-04-30T07:25:40.015Z,100706.59
2023-04-30T07:27:45.062Z,100706.97
2023-04-30T07:29:50.086Z,100708.84
2023-04-30T07:31:55.261Z,100708.58
2023-04-30T07:34:00.592Z,100708.88
2023-04-30T07:36:05.651Z,100711.44
2023-04-30T07:38:10.700Z,100711.27
2023-04-30T07:40:35.216Z,100716.14
2023-04-30T07:42:40.887Z,100717.71
2023-04-30T07:44:45.903Z,100720.5
2023-04-30T07:46:50.920Z,100721.16
2023-04-30T07:48:55.989Z,100722.21
2023-04-30T07:51:01.043Z,100722.03
2023-04-30T07:53:06.085Z,100722.14
2023-04-30T07:55:11.314Z,100727.52
2023-04-30T07:57:16.384Z,100730.89
2023-04-30T07:59:21.611Z,100732.91
2023-04-30T08:01:26.679Z,100733.63
2023-04-30T08:03:32.072Z,100735.02
2023-04-30T08:05:37.490Z,100730.15
2023-04-30T08:07:42.513Z,100734.2
2023-04-30T08:09:47.653Z,100737.44
2023-04-30T08:11:52.689Z,100738.6
2023-04-30T08:13:57.834Z,100744.8
2023-04-30T08:16:02.994Z,100735.53
2023-04-30T08:18:08.151Z,100739.25
2023-04-30T08:20:13.524Z,100735.3
2023-04-30T08:22:18.570Z,100738.26
2023-04-30T08:24:23.712Z,100733.73
2023-04-30T08:26:28.768Z,100731.85
2023-04-30T08:28:33.866Z,100737.66
2023-04-30T08:30:38.989Z,100733.7
2023-04-30T08:32:44.179Z,100735.41
2023-04-30T08:34:49.407Z,100737
2023-04-30T08:36:54.420Z,100740.55
2023-04-30T08:38:59.483Z,100738.55
2023-04-30T08:41:04.612Z,100736.53
2023-04-30T08:43:09.645Z,100734.17
2023-04-30T08:45:14.831Z,100740.76
2023-04-30T08:47:20.161Z,100743.58
2023-04-30T08:49:26.211Z,100744.95
2023-04-30T08:51:31.277Z,100741.67
2023-04-30T08:53:36.357Z,100743.52
2023-04-30T08:55:41.644Z,100743.58
2023-04-30T08:57:46.972Z,100747.8
2023-04-30T08:59:52.109Z,100743.92
2023-04-30T09:01:57.553Z,100744.13
2023-04-30T09:04:02.939Z,100741.39
2023-04-30T09:06:08.458Z,100749.44
2023-04-30T09:08:13.583Z,100752.16
2023-04-30T09:10:18.779Z,100750.69
2023-04-30T09:12:23.861Z,100754.84
2023-04-30T09:14:28.980Z,100756.84
2023-04-30T09:16:34.475Z,100751.81
2023-04-30T09:18:39.612Z,100753.64
2023-04-30T09:20:44.680Z,100747.34
2023-04-30T09:22:49.741Z,100756.91
2023-04-30T09:24:54.793Z,100759.31
2023-04-30T09:26:59.822Z,100757.75
2023-04-30T09:29:05.002Z,100762.49
2023-04-30T09:31:10.146Z,100755.95
2023-04-30T09:33:15.517Z,100759.84
2023-04-30T09:35:20.768Z,100757.05
2023-04-30T09:37:25.895Z,100762.63
2023-04-30T09:39:31.042Z,100768.59
2023-04-30T09:41:36.061Z,100761.86
2023-04-30T09:43:41.055Z,100762.71
2023-04-30T09:45:46.227Z,100764.58
2023-04-30T09:47:51.518Z,100758.77
2023-04-30T09:49:59.838Z,100754.2
2023-04-30T09:52:05.102Z,100754.02
2023-04-30T09:54:10.136Z,100758.98
2023-04-30T09:56:15.174Z,100757.44
2023-04-30T09:58:20.205Z,100754.05
2023-04-30T10:00:25.282Z,100753.45
2023-04-30T10:02:30.408Z,100746.7
2023-04-30T10:04:35.478Z,100750.05
2023-04-30T10:06:40.655Z,100757.1
2023-04-30T10:08:45.698Z,100749.72
2023-04-30T10:10:50.699Z,100747.26
2023-04-30T10:12:55.737Z,100737.17
2023-04-30T10:15:00.746Z,100735.96
2023-04-30T10:17:05.779Z,100737.73
2023-04-30T10:19:10.875Z,100734.16
2023-04-30T10:21:16.464Z,100741.55
2023-04-30T10:23:21.619Z,100747.66
2023-04-30T10:25:26.799Z,100741.42
2023-04-30T10:27:31.895Z,100741.47
2023-04-30T10:29:37.117Z,100740.08
2023-04-30T10:31:42.383Z,100742.86
2023-04-30T10:33:47.416Z,100740.92
2023-04-30T10:35:52.504Z,100745.22
2023-04-30T10:37:57.591Z,100741.75
2023-04-30T10:40:02.783Z,100739.43
2023-04-30T10:42:07.833Z,100735.03
2023-04-30T10:44:12.865Z,100732.31
2023-04-30T10:46:18.045Z,100733.74
2023-04-30T10:48:23.189Z,100729.07
2023-04-30T10:50:28.279Z,100729.68
2023-04-30T10:52:33.447Z,100725.25
2023-04-30T10:54:38.540Z,100725.8
2023-04-30T10:56:43.696Z,100721.13
2023-04-30T10:58:48.745Z,100717.99
2023-04-30T11:00:53.792Z,100723.07
2023-04-30T11:02:58.948Z,100725.4
2023-04-30T11:05:04.368Z,100728.42
2023-04-30T11:07:09.790Z,100730.5
2023-04-30T11:09:14.900Z,100723.73
2023-04-30T11:11:20.011Z,100721.55
2023-04-30T11:13:25.547Z,100719.23
2023-04-30T11:15:31.060Z,100719.53
2023-04-30T11:17:36.456Z,100723.46
2023-04-30T11:19:41.649Z,100725.64
2023-04-30T11:21:46.740Z,100725.13
2023-04-30T11:23:51.893Z,100720.36
2023-04-30T11:25:56.965Z,100715.17
2023-04-30T11:28:02.166Z,100717.88
2023-04-30T11:30:07.470Z,100720.23
2023-04-30T11:32:12.636Z,100724.28
2023-04-30T11:34:17.754Z,100725.75
2023-04-30T11:36:22.748Z,100726.47
2023-04-30T11:38:27.949Z,100721.77
2023-04-30T11:40:33.001Z,100729.47
2023-04-30T11:42:38.087Z,100729.23
2023-04-30T11:44:43.269Z,100726.44
2023-04-30T11:46:48.409Z,100718.97
2023-04-30T11:48:53.524Z,100716.34
2023-04-30T11:50:58.550Z,100714.92
2023-04-30T11:53:03.641Z,100715.56
2023-04-30T11:55:08.705Z,100709.22
2023-04-30T11:57:13.773Z,100713.72
2023-04-30T11:59:18.953Z,100718.02
2023-04-30T12:01:24.067Z,100719.98
2023-04-30T12:03:29.269Z,100712.97
2023-04-30T12:05:34.723Z,100712.76
2023-04-30T12:07:39.872Z,100711.36
2023-04-30T12:09:44.899Z,100715.08
2023-04-30T12:11:50.047Z,100718.97
2023-04-30T12:13:55.128Z,100717.73
2023-04-30T12:16:00.308Z,100722.78
2023-04-30T12:18:05.545Z,100719.71
2023-04-30T12:20:10.818Z,100714.88
2023-04-30T12:22:15.907Z,100714.13
2023-04-30T12:24:20.983Z,100716.85
2023-04-30T12:26:26.025Z,100720.33
2023-04-30T12:28:31.109Z,100719
2023-04-30T12:30:36.170Z,100716.58
2023-04-30T12:32:41.525Z,100715.05
2023-04-30T12:34:46.614Z,100709.82
2023-04-30T12:36:51.634Z,100710.13
2023-04-30T12:38:56.662Z,100707.73
2023-04-30T12:41:03.102Z,100705.96
2023-04-30T12:43:08.421Z,100707.8
2023-04-30T12:45:13.530Z,100708.02
2023-04-30T12:47:18.678Z,100707.22
2023-04-30T12:49:23.753Z,100708.38
2023-04-30T12:51:28.812Z,100700.23
2023-04-30T12:53:33.937Z,100699.31
2023-04-30T12:55:39.095Z,100699.52
2023-04-30T12:57:44.190Z,100701.88
2023-04-30T12:59:49.374Z,100705.05
2023-04-30T13:01:54.503Z,100702.25
2023-04-30T13:03:59.882Z,100701.84
2023-04-30T13:06:05.482Z,100707.67
2023-04-30T13:08:10.685Z,100701.53
2023-04-30T13:10:16.280Z,100695.5
2023-04-30T13:12:21.493Z,100692.63
2023-04-30T13:14:26.587Z,100692.83
2023-04-30T13:16:31.755Z,100692.28
2023-04-30T13:18:37.063Z,100694.64
2023-04-30T13:20:42.374Z,100694.67
2023-04-30T13:22:47.360Z,100688.35
2023-04-30T13:24:52.413Z,100691.11
2023-04-30T13:26:57.821Z,100683.75
2023-04-30T13:29:03.427Z,100696.64
2023-04-30T13:31:08.606Z,100695.69
2023-04-30T13:33:14.028Z,100689.45
2023-04-30T13:35:19.154Z,100687.76
2023-04-30T13:37:24.409Z,100688.77
2023-04-30T13:39:29.560Z,100686.35
2023-04-30T13:41:34.943Z,100681.44
2023-04-30T13:43:43.372Z,100682.42
2023-04-30T13:45:48.449Z,100680.68
2023-04-30T13:47:53.566Z,100683.65
2023-04-30T13:49:59.128Z,100684.54
2023-04-30T13:52:04.223Z,100682.7
2023-04-30T13:54:09.300Z,100685.16
2023-04-30T13:56:14.385Z,100690.67
2023-04-30T13:58:19.480Z,100691.42
2023-04-30T14:00:24.549Z,100688.31
2023-04-30T14:02:29.842Z,100685.52
2023-04-30T14:04:35.059Z,100685.27
2023-04-30T14:06:40.304Z,100685.84
2023-04-30T14:08:45.557Z,100683.43
2023-04-30T14:10:50.593Z,100678.59
2023-04-30T14:12:55.661Z,100677.71
2023-04-30T14:15:00.725Z,100674.38
2023-04-30T14:17:05.758Z,100671.57
2023-04-30T14:19:10.828Z,100670.34
2023-04-30T14:21:15.866Z,100668.74
2023-04-30T14:23:21.026Z,100674.03
2023-04-30T14:25:26.065Z,100670.8
2023-04-30T14:27:31.071Z,100665.75
2023-04-30T14:29:36.283Z,100662.19
2023-04-30T14:31:41.490Z,100657.63
2023-04-30T14:33:46.620Z,100657
2023-04-30T14:35:51.592Z,100658.43
2023-04-30T14:37:56.561Z,100659.96
2023-04-30T14:40:01.592Z,100660.62
2023-04-30T14:42:06.690Z,100663.55
2023-04-30T14:44:11.912Z,100655.27
2023-04-30T14:46:17.121Z,100655.61
2023-04-30T14:48:22.426Z,100653.2
2023-04-30T14:50:27.511Z,100658.82
2023-04-30T14:52:32.568Z,100658.11
2023-04-30T14:54:37.625Z,100657.19
2023-04-30T14:56:42.680Z,100652.96
2023-04-30T14:58:47.761Z,100659.95
2023-04-30T15:00:52.972Z,100650.44
2023-04-30T15:02:58.526Z,100651.8
2023-04-30T15:05:03.856Z,100652.55
2023-04-30T15:07:08.990Z,100649.45
2023-04-30T15:09:14.032Z,100651.91
2023-04-30T15:11:19.084Z,100653.95
2023-04-30T15:13:24.205Z,100655.41
2023-04-30T15:15:29.444Z,100656.84
2023-04-30T15:17:34.701Z,100649.78
2023-04-30T15:19:39.806Z,100648.7
2023-04-30T15:21:46.342Z,100652.72
2023-04-30T15:23:53.077Z,100648.16
2023-04-30T15:25:58.134Z,100649.86
2023-04-30T15:28:03.221Z,100651.19
2023-04-30T15:30:08.319Z,100653.54
2023-04-30T15:32:13.505Z,100646.8
2023-04-30T15:34:18.618Z,100642.27
2023-04-30T15:36:23.712Z,100647.61
2023-04-30T15:38:28.860Z,100649.28
2023-04-30T15:40:33.879Z,100645.88
2023-04-30T15:42:38.958Z,100648.97
2023-04-30T15:44:43.981Z,100654.09
2023-04-30T15:46:49.219Z,100650.09
2023-04-30T15:48:54.414Z,100644.88
2023-04-30T15:50:59.442Z,100648.43
2023-04-30T15:53:04.572Z,100647.88
2023-04-30T15:55:09.712Z,100645.63
2023-04-30T15:57:14.855Z,100645.05
2023-04-30T15:59:21.093Z,100642.03
2023-04-30T16:01:26.258Z,100648.46
2023-04-30T16:03:31.694Z,100643.91
2023-04-30T16:05:37.153Z,100646.55
2023-04-30T16:07:44.903Z,100647.38
2023-04-30T16:09:49.917Z,100647.73
2023-04-30T16:11:54.953Z,100642.05
2023-04-30T16:13:59.936Z,100640.78
2023-04-30T16:16:05.060Z,100641.27
2023-04-30T16:18:10.124Z,100642.63
2023-04-30T16:20:15.165Z,100643.38
2023-04-30T16:22:20.238Z,100643.49
2023-04-30T16:24:25.261Z,100643.7
2023-04-30T16:26:30.538Z,100643.44
2023-04-30T16:28:35.707Z,100641.48
2023-04-30T16:30:40.873Z,100639.17
2023-04-30T16:32:46.079Z,100635.63
2023-04-30T16:34:51.416Z,100638.8
2023-04-30T16:36:56.562Z,100638.59
2023-04-30T16:39:01.664Z,100637.2
2023-04-30T16:41:06.893Z,100630.96
2023-04-30T16:43:11.975Z,100633.83
2023-04-30T16:45:17.202Z,100634.84
2023-04-30T16:47:22.574Z,100632.63
2023-04-30T16:49:27.789Z,100637.16
2023-04-30T16:51:32.913Z,100634.85
2023-04-30T16:53:38.052Z,100639.77
2023-04-30T16:55:43.204Z,100637.96
2023-04-30T16:57:48.254Z,100634.28
2023-04-30T16:59:53.747Z,100639.74
2023-04-30T17:01:59.332Z,100638.24
2023-04-30T17:04:04.572Z,100637.97
2023-04-30T17:06:10.166Z,100641.05
2023-04-30T17:08:15.491Z,100642
2023-04-30T17:10:20.514Z,100646.69
2023-04-30T17:12:25.594Z,100647.09
2023-04-30T17:14:30.663Z,100650.45
2023-04-30T17:16:35.828Z,100655.47
2023-04-30T17:18:41.264Z,100654.3
2023-04-30T17:20:46.311Z,100657.48
2023-04-30T17:22:51.353Z,100659.13
2023-04-30T17:24:58.996Z,100657.07
2023-04-30T17:27:05.968Z,100663.08
2023-04-30T17:29:11.092Z,100662.2
2023-04-30T17:31:16.285Z,100664.14
2023-04-30T17:33:21.561Z,100664.16
2023-04-30T17:35:26.619Z,100660.19
2023-04-30T17:37:31.774Z,100665.39
2023-04-30T17:39:37.026Z,100664.64
2023-04-30T17:41:42.167Z,100665.34
2023-04-30T17:43:47.289Z,100665.75
2023-04-30T17:45:52.526Z,100662.44
2023-04-30T17:47:58.146Z,100663.58
2023-04-30T17:50:03.316Z,100665.2
2023-04-30T17:52:08.640Z,100669.83
2023-04-30T17:54:13.866Z,100669.38
2023-04-30T17:56:19.179Z,100667.3
2023-04-30T17:58:24.262Z,100666.27
2023-04-30T18:00:29.379Z,100662.16
2023-04-30T18:02:34.586Z,100665.78
2023-04-30T18:04:40.141Z,100663.69
2023-04-30T18:06:45.348Z,100660.95
2023-04-30T18:08:50.560Z,100664.31
2023-04-30T18:10:55.689Z,100664.83
2023-04-30T18:13:00.854Z,100668.84
2023-04-30T18:15:05.927Z,100669.67
2023-04-30T18:17:10.968Z,100674.79
2023-04-30T18:19:16.087Z,100673.94
2023-04-30T18:21:21.141Z,100673.73
2023-04-30T18:23:26.233Z,100676.59
2023-04-30T18:25:31.352Z,100676.32
2023-04-30T18:27:36.431Z,100680.28
2023-04-30T18:29:41.626Z,100678.56
2023-04-30T18:31:46.808Z,100677.38
2023-04-30T18:33:52.044Z,100679.84
2023-04-30T18:35:57.441Z,100682.84
2023-04-30T18:38:02.481Z,100686.92
2023-04-30T18:40:07.585Z,100687.72
2023-04-30T18:42:12.721Z,100686.96
2023-04-30T18:44:17.813Z,100689.28
2023-04-30T18:46:23.568Z,100691.77
2023-04-30T18:48:29.049Z,100692.03
2023-04-30T18:50:34.143Z,100693.13
2023-04-30T18:52:39.288Z,100694.66
2023-04-30T18:54:44.352Z,100695.34
2023-04-30T18:56:49.553Z,100697.73
2023-04-30T18:58:54.589Z,100699.38
2023-04-30T19:00:59.995Z,100704.62
2023-04-30T19:03:05.416Z,100705.28
2023-04-30T19:05:10.587Z,100705.31
2023-04-30T19:07:15.789Z,100704.59
2023-04-30T19:09:22.140Z,100710.4
2023-04-30T19:11:27.258Z,100707.97
2023-04-30T19:13:32.373Z,100706.77
2023-04-30T19:15:37.659Z,100707.45
2023-04-30T19:17:42.983Z,100704.53
2023-04-30T19:19:48.108Z,100706.07
2023-04-30T19:21:53.183Z,100712.03
2023-04-30T19:23:58.289Z,100716.03
2023-04-30T19:26:03.518Z,100712.92
2023-04-30T19:28:08.641Z,100712.89
2023-04-30T19:30:13.787Z,100716.7
2023-04-30T19:32:18.978Z,100720.48
2023-04-30T19:34:24.360Z,100714.2
2023-04-30T19:36:29.638Z,100717.19
2023-04-30T19:38:34.890Z,100716.14
2023-04-30T19:40:40.520Z,100718.27
2023-04-30T19:42:45.840Z,100717.78
2023-04-30T19:44:50.991Z,100714.79
2023-04-30T19:46:56.244Z,100715.38
2023-04-30T19:49:01.386Z,100721.54
2023-04-30T19:51:06.586Z,100722.39
2023-04-30T19:53:11.787Z,100727.11
2023-04-30T19:55:16.967Z,100728.42
2023-04-30T19:57:22.165Z,100734.03
2023-04-30T19:59:27.248Z,100729.22
2023-04-30T20:01:32.625Z,100729.22
2023-04-30T20:03:38.349Z,100732.56
2023-04-30T20:05:43.812Z,100736.06
2023-04-30T20:07:49.320Z,100735.69
2023-04-30T20:09:55.326Z,100738.55
2023-04-30T20:12:01.214Z,100740.59
2023-04-30T20:14:06.488Z,100743.66
2023-04-30T20:16:11.741Z,100747.13
2023-04-30T20:18:17.084Z,100748.92
2023-04-30T20:20:22.235Z,100746.2
2023-04-30T20:22:27.360Z,100746.38
2023-04-30T20:24:32.523Z,100745.5
2023-04-30T20:26:37.620Z,100745.71
2023-04-30T20:28:44.008Z,100745.09
2023-04-30T20:30:49.553Z,100746.5
2023-04-30T20:32:54.752Z,100746.71
2023-04-30T20:35:00.066Z,100746.84
2023-04-30T20:37:05.174Z,100752.68
2023-04-30T20:39:10.281Z,100755.16
2023-04-30T20:41:15.406Z,100756.63
2023-04-30T20:43:20.499Z,100754.42
2023-04-30T20:45:25.688Z,100759.47
2023-04-30T20:47:30.848Z,100759.47
2023-04-30T20:49:36.120Z,100759.76
2023-04-30T20:51:41.224Z,100767.27
2023-04-30T20:53:46.370Z,100765.33
2023-04-30T20:55:51.431Z,100761.22
2023-04-30T20:57:56.530Z,100758.84
2023-04-30T21:00:01.626Z,100762.26
2023-04-30T21:02:06.924Z,100763.35
2023-04-30T21:04:12.185Z,100762.25
2023-04-30T21:06:17.398Z,100763.69
2023-04-30T21:08:22.759Z,100767.16
2023-04-30T21:10:27.838Z,100762.19
2023-04-30T21:12:32.997Z,100767.22
2023-04-30T21:14:38.063Z,100764.41
2023-04-30T21:16:43.381Z,100764.17
2023-04-30T21:18:48.622Z,100766.84
2023-04-30T21:20:54.019Z,100768.01
2023-04-30T21:22:59.147Z,100769.17
2023-04-30T21:25:04.502Z,100768.44
2023-04-30T21:27:09.573Z,100774.97
2023-04-30T21:29:14.663Z,100773.98
2023-04-30T21:31:19.935Z,100776.15
2023-04-30T21:33:25.091Z,100774.48
2023-04-30T21:35:30.173Z,100777.42
2023-04-30T21:37:35.202Z,100772.65
2023-04-30T21:39:40.372Z,100771.9
2023-04-30T21:41:45.555Z,100770.41
2023-04-30T21:43:50.665Z,100769.69
2023-04-30T21:45:55.864Z,100767.57
2023-04-30T21:48:01.131Z,100768.53
2023-04-30T21:50:06.319Z,100771.41
2023-04-30T21:52:11.380Z,100776.26
2023-04-30T21:54:16.460Z,100777.18
2023-04-30T21:56:23.019Z,100775.06
2023-04-30T21:58:28.037Z,100781.75
2023-04-30T22:00:33.098Z,100784.18
2023-04-30T22:02:38.462Z,100781.55
2023-04-30T22:04:43.695Z,100782.31
2023-04-30T22:06:48.961Z,100781.67
2023-04-30T22:08:54.255Z,100779.9
2023-04-30T22:10:59.443Z,100782.52
2023-04-30T22:13:04.739Z,100786.28
2023-04-30T22:15:09.779Z,100786.73
2023-04-30T22:17:15.007Z,100785.98
2023-04-30T22:19:20.119Z,100781.71
2023-04-30T22:21:25.211Z,100775.16
2023-04-30T22:23:30.463Z,100781
2023-04-30T22:25:35.477Z,100780.11
2023-04-30T22:27:40.684Z,100781.34
2023-04-30T22:29:45.738Z,100786.3
2023-04-30T22:31:50.996Z,100782.23
2023-04-30T22:33:56.189Z,100781.34
2023-04-30T22:36:01.275Z,100784.22
2023-04-30T22:38:06.437Z,100780.36
2023-04-30T22:40:11.501Z,100783.3
2023-04-30T22:42:16.780Z,100785.2
2023-04-30T22:44:21.827Z,100787.12
2023-04-30T22:46:26.993Z,100784.08
2023-04-30T22:48:32.173Z,100786.95
2023-04-30T22:50:37.336Z,100786.78
2023-04-30T22:52:42.392Z,100788.28
2023-04-30T22:54:47.433Z,100786.06
2023-04-30T22:56:52.628Z,100785.18
2023-04-30T22:58:57.719Z,100781.63
2023-04-30T23:01:02.793Z,100778.43
2023-04-30T23:03:08.239Z,100780.34
2023-04-30T23:05:13.380Z,100785.52
2023-04-30T23:07:18.529Z,100787.67
2023-04-30T23:09:23.603Z,100783.17
2023-04-30T23:11:28.673Z,100784.44
2023-04-30T23:13:33.713Z,100784.06
2023-04-30T23:15:38.851Z,100786.17
2023-04-30T23:17:44.024Z,100780.69
2023-04-30T23:19:49.149Z,100778.95
2023-04-30T23:21:54.169Z,100779.48
2023-04-30T23:23:59.188Z,100778.16
2023-04-30T23:26:04.287Z,100776.15
2023-04-30T23:28:09.456Z,100774.85
2023-04-30T23:30:14.532Z,100771.89
2023-04-30T23:32:19.858Z,100771.41
2023-04-30T23:34:25.190Z,100772.27
2023-04-30T23:36:30.270Z,100770.52
2023-04-30T23:38:35.488Z,100775.23
2023-04-30T23:40:40.536Z,100773.32
2023-04-30T23:42:46.570Z,100775.88
2023-04-30T23:44:51.778Z,100776.8
2023-04-30T23:46:56.898Z,100778.81
2023-04-30T23:49:02.053Z,100772.95
2023-04-30T23:51:07.209Z,100773.33
2023-04-30T23:53:12.253Z,100770.7